Time;durP1;ratioP1;P1;durP2;ratioP2;P2;SDS_P1;SDS_P2;PMS_P1;PMS_P2;Temp;Humidity;BMP_temperature;BMP_pressure;BME280_temperature;BME280_humidity;BME280_pressure;Samples;Min_cycle;Max_cycle;Signal;HPM_P1;HPM_P2
2024/01/27 00:02:21;;;;;;;8.50;3.13;;;;;;;;;;5025624;28;20181;-50
2024/01/27 00:04:48;;;;;;;6.30;3.97;;;;;;;;;;5025325;28;20185;-52
2024/01/27 00:07:14;;;;;;;13.27;3.03;;;;;;;;;;5025715;28;20178;-51
2024/01/27 00:09:40;;;;;;;9.63;3.57;;;;;;;;;;5027299;28;20508;-52
2024/01/27 00:12:07;;;;;;;5.87;3.97;;;;;;;;;;5022241;28;20206;-52
2024/01/27 00:14:34;;;;;;;7.33;3.40;;;;;;;;;;5020467;28;20185;-52
2024/01/27 00:17:00;;;;;;;7.40;3.23;;;;;;;;;;5023950;28;20170;-51
2024/01/27 00:19:26;;;;;;;4.87;3.40;;;;;;;;;;5026597;28;20204;-53
2024/01/27 00:21:52;;;;;;;7.63;2.87;;;;;;;;;;5022099;28;20678;-52
2024/01/27 00:24:18;;;;;;;4.90;2.60;;;;;;;;;;5026225;28;20920;-53
2024/01/27 00:26:44;;;;;;;6.20;3.67;;;;;;;;;;5021473;28;20186;-52
2024/01/27 00:29:10;;;;;;;7.13;3.23;;;;;;;;;;5026309;28;20204;-52
2024/01/27 00:31:36;;;;;;;5.17;3.03;;;;;;;;;;5024829;28;20700;-52
2024/01/27 00:34:02;;;;;;;6.33;3.03;;;;;;;;;;5026958;28;20182;-53
2024/01/27 00:36:28;;;;;;;5.60;3.13;;;;;;;;;;5019639;28;20216;-54
2024/01/27 00:38:54;;;;;;;6.27;3.10;;;;;;;;;;5027003;28;20186;-51
2024/01/27 00:41:20;;;;;;;6.83;3.50;;;;;;;;;;5023558;28;20257;-52
2024/01/27 00:43:46;;;;;;;4.83;2.87;;;;;;;;;;5025498;28;20216;-52
2024/01/27 00:46:12;;;;;;;6.07;2.97;;;;;;;;;;5021022;28;20256;-53
2024/01/27 00:48:38;;;;;;;5.50;3.13;;;;;;;;;;5016027;28;20185;-52
2024/01/27 00:51:04;;;;;;;8.13;3.50;;;;;;;;;;5023515;28;20666;-52
2024/01/27 00:53:31;;;;;;;6.67;3.50;;;;;;;;;;5015584;28;20178;-51
2024/01/27 00:55:57;;;;;;;7.03;3.67;;;;;;;;;;5014416;28;20652;-53
2024/01/27 00:58:23;;;;;;;5.70;2.87;;;;;;;;;;5014310;28;20205;-53
2024/01/27 01:00:49;;;;;;;7.10;3.10;;;;;;;;;;5012301;28;20264;-54
2024/01/27 01:03:15;;;;;;;8.40;3.10;;;;;;;;;;5018037;28;20185;-53
2024/01/27 01:05:40;;;;;;;5.87;3.40;;;;;;;;;;5011421;28;20271;-54
2024/01/27 01:08:07;;;;;;;6.17;2.60;;;;;;;;;;5014221;28;20650;-53
2024/01/27 01:10:33;;;;;;;4.10;2.43;;;;;;;;;;5013773;28;20612;-54
2024/01/27 01:12:59;;;;;;;5.27;2.73;;;;;;;;;;5014008;28;20613;-54
2024/01/27 01:15:25;;;;;;;4.47;2.93;;;;;;;;;;5016179;28;20571;-52
2024/01/27 01:17:51;;;;;;;6.10;3.00;;;;;;;;;;5013091;28;20185;-51
2024/01/27 01:20:17;;;;;;;4.10;2.80;;;;;;;;;;5013130;28;20218;-55
2024/01/27 01:22:43;;;;;;;7.67;2.80;;;;;;;;;;5012442;28;20966;-53
2024/01/27 01:25:09;;;;;;;5.33;2.83;;;;;;;;;;5008724;28;20193;-53
2024/01/27 01:27:35;;;;;;;5.40;2.70;;;;;;;;;;5011855;28;20187;-51
2024/01/27 01:30:01;;;;;;;5.77;2.73;;;;;;;;;;5013266;28;20224;-52
2024/01/27 01:32:27;;;;;;;5.77;2.80;;;;;;;;;;5012670;28;20300;-56
2024/01/27 01:34:53;;;;;;;4.00;2.50;;;;;;;;;;5013099;28;20630;-51
2024/01/27 01:37:19;;;;;;;5.40;2.70;;;;;;;;;;5013357;28;20276;-51
2024/01/27 01:39:45;;;;;;;5.03;2.67;;;;;;;;;;5013769;28;20538;-52
2024/01/27 01:42:11;;;;;;;3.77;2.40;;;;;;;;;;5012043;28;20202;-53
2024/01/27 01:44:37;;;;;;;2.97;2.53;;;;;;;;;;5016220;28;20236;-52
2024/01/27 01:47:03;;;;;;;5.67;2.67;;;;;;;;;;5011762;28;20316;-53
2024/01/27 01:49:30;;;;;;;6.07;3.70;;;;;;;;;;5013030;28;20389;-51
2024/01/27 01:51:57;;;;;;;3.97;2.67;;;;;;;;;;5012513;28;20305;-53
2024/01/27 01:54:27;;;;;;;4.80;2.60;;;;;;;;;;5014486;28;20301;-55
2024/01/27 01:56:53;;;;;;;5.47;3.00;;;;;;;;;;5012995;28;20257;-55
2024/01/27 01:59:19;;;;;;;6.00;2.90;;;;;;;;;;5011596;28;20589;-55
2024/01/27 02:01:45;;;;;;;6.10;2.60;;;;;;;;;;5015991;28;20197;-54
2024/01/27 02:04:11;;;;;;;4.80;2.70;;;;;;;;;;5015815;28;20183;-54
2024/01/27 02:06:37;;;;;;;3.87;2.57;;;;;;;;;;5012688;28;20178;-54
2024/01/27 02:09:05;;;;;;;4.23;2.70;;;;;;;;;;5012524;28;20178;-54
2024/01/27 02:11:31;;;;;;;5.83;2.40;;;;;;;;;;4993784;28;20290;-55
2024/01/27 02:13:57;;;;;;;5.77;2.60;;;;;;;;;;5016061;28;20620;-54
2024/01/27 02:16:23;;;;;;;3.50;2.50;;;;;;;;;;5014660;28;20225;-55
2024/01/27 02:18:49;;;;;;;5.83;2.60;;;;;;;;;;5012398;28;20181;-55
2024/01/27 02:21:15;;;;;;;4.63;2.50;;;;;;;;;;5009339;28;20170;-54
2024/01/27 02:23:41;;;;;;;5.23;2.90;;;;;;;;;;5010443;28;20610;-54
2024/01/27 02:26:07;;;;;;;7.63;3.17;;;;;;;;;;5013443;28;20189;-55
2024/01/27 02:28:35;;;;;;;5.87;2.53;;;;;;;;;;5015923;28;20178;-54
2024/01/27 02:31:01;;;;;;;5.87;2.33;;;;;;;;;;5020419;28;20182;-54
2024/01/27 02:33:27;;;;;;;5.23;2.50;;;;;;;;;;5015968;28;20199;-54
2024/01/27 02:35:53;;;;;;;3.17;2.30;;;;;;;;;;5014910;28;20269;-54
2024/01/27 02:38:19;;;;;;;3.87;2.37;;;;;;;;;;5013977;28;20193;-54
2024/01/27 02:40:45;;;;;;;4.17;2.33;;;;;;;;;;5012049;28;20174;-55
2024/01/27 02:43:11;;;;;;;3.57;2.50;;;;;;;;;;5010627;28;20656;-54
2024/01/27 02:45:37;;;;;;;6.93;2.57;;;;;;;;;;5011876;28;20198;-54
2024/01/27 02:48:03;;;;;;;3.87;2.37;;;;;;;;;;5012624;28;20264;-54
2024/01/27 02:50:29;;;;;;;4.67;2.40;;;;;;;;;;5022653;28;20222;-54
2024/01/27 02:52:55;;;;;;;8.73;2.57;;;;;;;;;;5011587;28;20245;-54
2024/01/27 02:55:21;;;;;;;6.07;2.60;;;;;;;;;;5013241;28;20225;-54
2024/01/27 02:57:47;;;;;;;4.00;2.50;;;;;;;;;;5011742;28;20646;-54
2024/01/27 03:00:13;;;;;;;3.87;2.37;;;;;;;;;;5011764;28;20202;-55
2024/01/27 03:02:39;;;;;;;5.10;2.03;;;;;;;;;;5013688;28;20205;-54
2024/01/27 03:05:05;;;;;;;2.93;2.13;;;;;;;;;;5015855;28;20193;-54
2024/01/27 03:07:31;;;;;;;5.00;2.77;;;;;;;;;;5011940;28;20189;-54
2024/01/27 03:09:57;;;;;;;6.60;2.10;;;;;;;;;;5011503;28;20190;-54
2024/01/27 03:12:24;;;;;;;4.03;2.10;;;;;;;;;;5015390;28;20246;-54
2024/01/27 03:14:50;;;;;;;4.00;2.33;;;;;;;;;;5017754;28;20181;-54
2024/01/27 03:17:16;;;;;;;4.10;2.30;;;;;;;;;;5014449;28;20718;-54
2024/01/27 03:19:42;;;;;;;4.03;2.73;;;;;;;;;;5016305;28;20257;-54
2024/01/27 03:22:08;;;;;;;7.87;2.70;;;;;;;;;;5014397;28;20273;-54
2024/01/27 03:24:34;;;;;;;3.13;2.00;;;;;;;;;;5014837;28;20179;-54
2024/01/27 03:27:00;;;;;;;4.50;2.60;;;;;;;;;;5018039;28;20196;-54
2024/01/27 03:29:28;;;;;;;4.63;2.13;;;;;;;;;;5022024;28;20201;-54
2024/01/27 03:31:53;;;;;;;6.83;2.63;;;;;;;;;;5015575;28;20909;-54
2024/01/27 03:34:24;;;;;;;3.07;2.10;;;;;;;;;;5016584;28;20174;-54
2024/01/27 03:36:50;;;;;;;6.37;2.23;;;;;;;;;;5017785;28;20176;-54
2024/01/27 03:39:16;;;;;;;3.43;2.50;;;;;;;;;;5019632;28;20174;-54
2024/01/27 03:41:42;;;;;;;7.20;2.23;;;;;;;;;;5016152;28;20183;-54
2024/01/27 03:44:08;;;;;;;4.00;2.03;;;;;;;;;;5014573;28;20190;-54
2024/01/27 03:46:35;;;;;;;5.50;2.40;;;;;;;;;;5014665;28;20335;-54
2024/01/27 03:49:01;;;;;;;3.30;2.27;;;;;;;;;;5014601;28;20568;-54
2024/01/27 03:51:27;;;;;;;5.70;3.03;;;;;;;;;;5017777;28;20205;-54
2024/01/27 03:53:53;;;;;;;4.57;2.40;;;;;;;;;;5013874;28;20178;-54
2024/01/27 03:56:19;;;;;;;3.47;2.10;;;;;;;;;;5012366;28;20189;-54
2024/01/27 03:58:45;;;;;;;3.13;2.27;;;;;;;;;;5015713;28;20177;-54
2024/01/27 04:01:11;;;;;;;3.30;2.40;;;;;;;;;;5019481;28;20209;-54
2024/01/27 04:03:37;;;;;;;4.53;2.53;;;;;;;;;;5023648;28;20185;-54
2024/01/27 04:06:03;;;;;;;3.70;2.03;;;;;;;;;;5024955;28;20178;-55
2024/01/27 04:08:30;;;;;;;3.73;2.73;;;;;;;;;;5024976;28;20196;-55
2024/01/27 04:10:56;;;;;;;3.20;2.60;;;;;;;;;;5024615;28;20178;-54
2024/01/27 04:13:22;;;;;;;4.33;2.30;;;;;;;;;;5027355;28;20546;-54
2024/01/27 04:15:51;;;;;;;4.57;2.87;;;;;;;;;;5021172;28;20189;-51
2024/01/27 04:18:17;;;;;;;4.97;2.50;;;;;;;;;;5021603;28;20182;-51
2024/01/27 04:20:43;;;;;;;3.67;2.50;;;;;;;;;;5025044;28;20638;-51
2024/01/27 04:23:09;;;;;;;6.00;2.67;;;;;;;;;;5025838;28;20188;-52
2024/01/27 04:25:35;;;;;;;3.63;2.33;;;;;;;;;;5021947;28;20181;-51
2024/01/27 04:28:01;;;;;;;4.37;2.33;;;;;;;;;;5022510;28;20188;-52
2024/01/27 04:30:27;;;;;;;4.27;2.27;;;;;;;;;;5026283;28;20186;-50
2024/01/27 04:32:53;;;;;;;4.57;2.40;;;;;;;;;;5021864;28;20233;-50
2024/01/27 04:35:19;;;;;;;4.90;2.60;;;;;;;;;;5028054;28;20186;-51
2024/01/27 04:37:46;;;;;;;3.87;2.13;;;;;;;;;;5019245;28;20651;-50
2024/01/27 04:40:12;;;;;;;4.10;2.50;;;;;;;;;;5022329;28;20607;-51
2024/01/27 04:42:39;;;;;;;4.00;2.60;;;;;;;;;;5026343;28;20562;-51
2024/01/27 04:45:08;;;;;;;4.53;2.60;;;;;;;;;;5028104;28;20182;-53
2024/01/27 04:47:34;;;;;;;4.57;2.40;;;;;;;;;;5019770;28;20233;-53
2024/01/27 04:50:00;;;;;;;5.63;2.30;;;;;;;;;;5026211;28;20288;-51
2024/01/27 04:52:26;;;;;;;4.03;2.30;;;;;;;;;;5025886;28;20680;-52
2024/01/27 04:54:52;;;;;;;3.50;2.50;;;;;;;;;;5022629;28;20182;-51
2024/01/27 04:57:18;;;;;;;4.27;2.57;;;;;;;;;;5021940;28;20186;-52
2024/01/27 04:59:44;;;;;;;8.40;2.97;;;;;;;;;;5023918;28;20235;-50
2024/01/27 05:02:11;;;;;;;6.00;2.13;;;;;;;;;;5023347;28;20182;-50
2024/01/27 05:04:38;;;;;;;3.50;2.50;;;;;;;;;;5026889;28;20204;-51
2024/01/27 05:07:04;;;;;;;6.03;2.90;;;;;;;;;;5024574;28;20185;-49
2024/01/27 05:09:30;;;;;;;4.63;2.50;;;;;;;;;;5022149;28;20217;-52
2024/01/27 05:11:56;;;;;;;8.93;3.20;;;;;;;;;;5021933;28;20260;-51
2024/01/27 05:14:22;;;;;;;6.03;2.97;;;;;;;;;;5024781;28;20182;-52
2024/01/27 05:16:48;;;;;;;4.07;2.37;;;;;;;;;;5021656;28;20673;-51
2024/01/27 05:19:16;;;;;;;5.57;2.70;;;;;;;;;;5025754;28;20182;-51
2024/01/27 05:21:42;;;;;;;3.43;2.37;;;;;;;;;;5020028;28;20201;-53
2024/01/27 05:24:08;;;;;;;3.40;2.30;;;;;;;;;;5024077;28;20209;-51
2024/01/27 05:26:35;;;;;;;4.47;2.60;;;;;;;;;;5020195;28;20661;-54
2024/01/27 05:29:01;;;;;;;4.47;2.63;;;;;;;;;;5012981;28;20506;-53
2024/01/27 05:31:27;;;;;;;4.43;2.43;;;;;;;;;;5013937;28;20212;-53
2024/01/27 05:33:53;;;;;;;4.87;2.60;;;;;;;;;;5013019;28;20202;-53
2024/01/27 05:36:19;;;;;;;4.57;2.50;;;;;;;;;;5016418;28;20599;-54
2024/01/27 05:38:45;;;;;;;3.47;2.80;;;;;;;;;;5017419;28;20182;-53
2024/01/27 05:41:11;;;;;;;6.83;3.00;;;;;;;;;;5012364;28;20174;-53
2024/01/27 05:43:37;;;;;;;5.47;2.70;;;;;;;;;;5010133;28;20300;-53
2024/01/27 05:46:03;;;;;;;5.93;2.70;;;;;;;;;;5012714;28;20249;-53
2024/01/27 05:48:29;;;;;;;4.80;2.57;;;;;;;;;;5013951;28;20634;-53
2024/01/27 05:50:56;;;;;;;4.07;2.83;;;;;;;;;;5011274;28;20256;-54
2024/01/27 05:53:23;;;;;;;4.77;2.67;;;;;;;;;;5012835;28;20233;-54
2024/01/27 05:55:49;;;;;;;3.67;2.80;;;;;;;;;;5013088;28;20299;-54
2024/01/27 05:58:15;;;;;;;5.83;3.10;;;;;;;;;;5013881;28;20182;-54
2024/01/27 06:00:43;;;;;;;5.57;3.37;;;;;;;;;;5008989;28;20183;-53
2024/01/27 06:03:10;;;;;;;3.23;2.20;;;;;;;;;;5013774;28;20178;-53
2024/01/27 06:05:36;;;;;;;6.27;3.43;;;;;;;;;;5022137;28;20185;-54
2024/01/27 06:08:02;;;;;;;6.23;2.97;;;;;;;;;;5020399;28;20185;-54
2024/01/27 06:10:28;;;;;;;6.73;3.33;;;;;;;;;;5019215;28;20560;-54
2024/01/27 06:12:54;;;;;;;5.57;3.43;;;;;;;;;;5019766;28;20233;-53
2024/01/27 06:15:20;;;;;;;6.10;3.60;;;;;;;;;;5014283;28;20179;-53
2024/01/27 06:17:46;;;;;;;5.07;2.53;;;;;;;;;;5012968;28;20182;-53
2024/01/27 06:20:12;;;;;;;5.10;2.77;;;;;;;;;;5014461;28;20174;-53
2024/01/27 06:22:38;;;;;;;5.27;3.30;;;;;;;;;;5013972;28;21107;-53
2024/01/27 06:25:05;;;;;;;3.57;2.80;;;;;;;;;;5011615;28;20694;-53
2024/01/27 06:27:31;;;;;;;4.43;2.77;;;;;;;;;;5015106;28;20505;-54
2024/01/27 06:29:57;;;;;;;5.40;2.77;;;;;;;;;;5012603;28;20716;-54
2024/01/27 06:32:23;;;;;;;6.40;3.00;;;;;;;;;;5012595;28;20213;-53
2024/01/27 06:34:49;;;;;;;7.10;3.03;;;;;;;;;;5013942;28;20182;-54
2024/01/27 06:37:15;;;;;;;5.67;2.90;;;;;;;;;;5013147;28;20191;-51
2024/01/27 06:39:41;;;;;;;4.27;3.23;;;;;;;;;;5011747;28;20190;-52
2024/01/27 06:42:07;;;;;;;4.50;3.03;;;;;;;;;;5013745;28;20206;-50
2024/01/27 06:44:33;;;;;;;6.20;2.80;;;;;;;;;;5013717;28;20190;-50
2024/01/27 06:46:59;;;;;;;6.03;2.83;;;;;;;;;;5015650;28;20225;-50
2024/01/27 06:49:25;;;;;;;4.27;2.80;;;;;;;;;;5015305;28;20275;-51
2024/01/27 06:51:51;;;;;;;3.10;2.57;;;;;;;;;;5015275;28;20707;-50
2024/01/27 06:54:17;;;;;;;5.93;2.83;;;;;;;;;;5018139;28;20182;-51
2024/01/27 06:56:43;;;;;;;6.40;3.10;;;;;;;;;;5018837;28;20174;-50
2024/01/27 06:59:09;;;;;;;5.17;2.90;;;;;;;;;;5021023;28;20244;-49
2024/01/27 07:01:35;;;;;;;6.93;3.03;;;;;;;;;;5016566;28;20183;-52
2024/01/27 07:04:01;;;;;;;3.80;2.80;;;;;;;;;;5022468;28;20630;-50
2024/01/27 07:06:27;;;;;;;6.33;3.30;;;;;;;;;;5013744;28;20233;-51
2024/01/27 07:08:53;;;;;;;4.37;2.70;;;;;;;;;;5015161;28;20613;-50
2024/01/27 07:11:19;;;;;;;5.00;2.47;;;;;;;;;;5017002;28;20233;-51
2024/01/27 07:13:45;;;;;;;5.40;2.83;;;;;;;;;;5015552;28;20204;-50
2024/01/27 07:16:11;;;;;;;4.40;2.90;;;;;;;;;;5015471;28;20260;-51
2024/01/27 07:18:37;;;;;;;4.97;3.70;;;;;;;;;;5004164;28;20196;-51
2024/01/27 07:21:03;;;;;;;5.97;2.80;;;;;;;;;;5016965;28;20185;-50
2024/01/27 07:23:29;;;;;;;5.33;3.17;;;;;;;;;;5013669;28;20221;-52
2024/01/27 07:25:57;;;;;;;5.20;3.03;;;;;;;;;;5014197;28;20189;-50
2024/01/27 07:28:23;;;;;;;5.63;3.23;;;;;;;;;;5016195;28;20183;-51
2024/01/27 07:30:49;;;;;;;4.47;3.33;;;;;;;;;;5016820;28;20185;-52
2024/01/27 07:33:15;;;;;;;6.33;2.93;;;;;;;;;;5028012;28;20311;-50
2024/01/27 07:35:41;;;;;;;6.50;3.00;;;;;;;;;;5026904;28;20798;-51
2024/01/27 07:38:08;;;;;;;7.93;3.17;;;;;;;;;;5024485;28;20247;-52
2024/01/27 07:40:34;;;;;;;4.87;2.80;;;;;;;;;;5024888;28;20182;-51
2024/01/27 07:43:00;;;;;;;4.50;2.77;;;;;;;;;;5023362;28;20667;-51
2024/01/27 07:45:26;;;;;;;4.73;2.60;;;;;;;;;;5021062;28;20186;-53
2024/01/27 07:47:52;;;;;;;4.57;3.03;;;;;;;;;;5022463;28;20530;-54
2024/01/27 07:50:18;;;;;;;7.10;3.40;;;;;;;;;;5023403;28;20178;-52
2024/01/27 07:52:44;;;;;;;;;;;;;;;;;;5021360;28;20240;-50
2024/01/27 07:55:10;;;;;;;4.93;2.63;;;;;;;;;;5019975;28;20042;-53
2024/01/27 07:57:36;;;;;;;5.80;3.00;;;;;;;;;;5018177;28;20593;-50
2024/01/27 08:00:03;;;;;;;5.30;2.50;;;;;;;;;;5022995;28;20650;-50
2024/01/27 08:02:29;;;;;;;4.97;2.50;;;;;;;;;;5023338;28;20240;-52
2024/01/27 08:04:55;;;;;;;8.35;4.30;;;;;;;;;;5019420;28;20182;-51
2024/01/27 08:07:21;;;;;;;4.87;3.10;;;;;;;;;;5021697;28;20923;-52
2024/01/27 08:09:47;;;;;;;5.77;2.97;;;;;;;;;;5020167;28;20228;-51
2024/01/27 08:12:13;;;;;;;3.83;2.97;;;;;;;;;;5016798;28;20209;-50
2024/01/27 08:14:39;;;;;;;6.10;3.23;;;;;;;;;;5021694;28;20194;-52
2024/01/27 08:17:05;;;;;;;5.80;2.93;;;;;;;;;;5021004;28;20178;-50
2024/01/27 08:19:31;;;;;;;5.50;2.90;;;;;;;;;;5023235;28;20178;-50
2024/01/27 08:21:58;;;;;;;4.93;2.87;;;;;;;;;;5027401;28;20177;-50
2024/01/27 08:24:24;;;;;;;5.03;3.20;;;;;;;;;;5023104;28;20647;-52
2024/01/27 08:26:50;;;;;;;6.10;2.95;;;;;;;;;;5026384;28;20273;-53
2024/01/27 08:29:16;;;;;;;7.43;3.00;;;;;;;;;;5028060;28;20416;-50
2024/01/27 08:31:43;;;;;;;5.30;3.30;;;;;;;;;;5021577;28;20336;-51
2024/01/27 08:34:12;;;;;;;5.80;3.13;;;;;;;;;;5028633;28;20198;-52
2024/01/27 08:36:38;;;;;;;5.87;3.03;;;;;;;;;;5015528;28;20179;-53
2024/01/27 08:39:07;;;;;;;8.93;3.97;;;;;;;;;;5015916;28;20194;-51
2024/01/27 08:41:33;;;;;;;6.63;2.97;;;;;;;;;;5021609;28;20235;-52
2024/01/27 08:43:59;;;;;;;3.60;2.93;;;;;;;;;;5014258;28;20647;-51
2024/01/27 08:46:25;;;;;;;10.43;3.47;;;;;;;;;;5017237;28;20218;-52
2024/01/27 08:48:51;;;;;;;5.70;3.03;;;;;;;;;;5020449;28;20193;-50
2024/01/27 08:51:17;;;;;;;6.83;3.80;;;;;;;;;;5018079;28;20170;-50
2024/01/27 08:53:48;;;;;;;6.13;3.33;;;;;;;;;;5016410;28;20197;-51
2024/01/27 08:56:15;;;;;;;8.47;3.87;;;;;;;;;;5023168;28;20481;-50
2024/01/27 08:58:41;;;;;;;6.10;3.20;;;;;;;;;;5019231;28;20723;-54
2024/01/27 09:01:08;;;;;;;7.23;3.43;;;;;;;;;;5020295;28;20340;-54
2024/01/27 09:03:34;;;;;;;5.73;3.47;;;;;;;;;;5016000;28;20178;-54
2024/01/27 09:06:00;;;;;;;5.57;3.10;;;;;;;;;;5020782;28;20241;-54
2024/01/27 09:08:26;;;;;;;9.57;3.30;;;;;;;;;;5023204;28;20716;-54
2024/01/27 09:10:52;;;;;;;5.50;3.30;;;;;;;;;;5020448;28;20276;-54
2024/01/27 09:13:18;;;;;;;7.30;2.87;;;;;;;;;;5018231;28;20719;-54
2024/01/27 09:15:44;;;;;;;6.03;3.20;;;;;;;;;;5023037;28;20185;-54
2024/01/27 09:18:10;;;;;;;10.33;4.13;;;;;;;;;;5025522;28;20178;-54
2024/01/27 09:20:36;;;;;;;10.17;3.60;;;;;;;;;;5024546;28;20216;-54
2024/01/27 09:23:02;;;;;;;7.60;3.93;;;;;;;;;;5024004;28;20177;-54
2024/01/27 09:25:29;;;;;;;8.30;3.70;;;;;;;;;;5024324;28;20181;-54
2024/01/27 09:27:56;;;;;;;9.80;3.60;;;;;;;;;;5024780;28;20185;-54
2024/01/27 09:30:22;;;;;;;5.50;3.57;;;;;;;;;;5021184;28;20238;-54
2024/01/27 09:32:48;;;;;;;6.07;3.70;;;;;;;;;;5020865;28;20203;-54
2024/01/27 09:35:14;;;;;;;5.33;3.60;;;;;;;;;;5026860;28;20541;-54
2024/01/27 09:37:40;;;;;;;6.50;3.87;;;;;;;;;;5024468;28;20185;-54
2024/01/27 09:40:07;;;;;;;7.93;3.47;;;;;;;;;;5026461;28;20244;-54
2024/01/27 09:42:35;;;;;;;7.83;3.27;;;;;;;;;;5028487;28;20202;-54
2024/01/27 09:45:02;;;;;;;7.27;3.77;;;;;;;;;;5026490;28;20235;-54
2024/01/27 09:47:28;;;;;;;7.47;3.83;;;;;;;;;;5024055;28;20732;-54
2024/01/27 09:49:54;;;;;;;6.73;3.30;;;;;;;;;;5023855;28;20599;-54
2024/01/27 09:52:20;;;;;;;5.93;3.53;;;;;;;;;;5029705;28;20197;-54
2024/01/27 09:54:46;;;;;;;8.57;3.13;;;;;;;;;;5013709;28;20184;-54
2024/01/27 09:57:13;;;;;;;6.03;3.20;;;;;;;;;;5013934;28;20248;-54
2024/01/27 09:59:44;;;;;;;8.07;3.60;;;;;;;;;;5017506;28;20192;-54
2024/01/27 10:02:11;;;;;;;7.87;3.97;;;;;;;;;;5016380;28;20194;-54
2024/01/27 10:04:39;;;;;;;5.70;3.57;;;;;;;;;;5020907;28;20216;-54
2024/01/27 10:07:05;;;;;;;10.83;3.90;;;;;;;;;;5022725;28;20718;-54
2024/01/27 10:09:31;;;;;;;5.23;3.23;;;;;;;;;;5015304;28;20297;-56
2024/01/27 10:11:57;;;;;;;5.80;3.43;;;;;;;;;;5023337;28;20205;-55
2024/01/27 10:14:23;;;;;;;6.37;3.50;;;;;;;;;;5020337;28;20181;-55
2024/01/27 10:16:49;;;;;;;7.10;4.07;;;;;;;;;;5012017;28;20191;-56
2024/01/27 10:19:17;;;;;;;6.83;3.60;;;;;;;;;;4999641;28;20645;-55
2024/01/27 10:21:43;;;;;;;9.97;4.33;;;;;;;;;;5016841;28;20182;-56
2024/01/27 10:24:09;;;;;;;7.07;3.43;;;;;;;;;;5019215;28;20536;-56
2024/01/27 10:26:35;;;;;;;9.40;3.73;;;;;;;;;;5022775;28;20197;-56
2024/01/27 10:29:01;;;;;;;6.37;3.57;;;;;;;;;;5016479;28;20557;-55
2024/01/27 10:31:28;;;;;;;7.93;3.43;;;;;;;;;;5018360;28;21438;-56
2024/01/27 10:33:56;;;;;;;9.40;4.00;;;;;;;;;;5021329;28;21015;-56
2024/01/27 10:36:22;;;;;;;8.07;4.33;;;;;;;;;;5020392;28;20177;-55
2024/01/27 10:38:48;;;;;;;8.63;3.77;;;;;;;;;;5014446;28;20174;-53
2024/01/27 10:41:20;;;;;;;6.93;3.63;;;;;;;;;;5017561;28;20177;-55
2024/01/27 10:43:48;;;;;;;9.07;3.63;;;;;;;;;;5022533;28;20229;-57
2024/01/27 10:46:14;;;;;;;7.47;4.57;;;;;;;;;;5023214;28;20236;-56
2024/01/27 10:48:42;;;;;;;6.97;3.90;;;;;;;;;;5024483;28;20206;-57
2024/01/27 10:51:12;;;;;;;6.90;3.73;;;;;;;;;;5019020;28;20179;-55
2024/01/27 10:53:39;;;;;;;6.40;3.47;;;;;;;;;;5022440;28;20300;-55
2024/01/27 10:56:09;;;;;;;7.87;3.60;;;;;;;;;;5020521;28;20598;-55
2024/01/27 10:58:40;;;;;;;10.33;4.13;;;;;;;;;;5021701;28;20177;-56
2024/01/27 11:01:10;;;;;;;4.90;3.20;;;;;;;;;;5019069;28;20166;-57
2024/01/27 11:03:39;;;;;;;8.07;3.37;;;;;;;;;;5018858;28;20575;-55
2024/01/27 11:06:06;;;;;;;7.63;3.20;;;;;;;;;;5022898;28;20743;-56
2024/01/27 11:08:34;;;;;;;6.77;3.27;;;;;;;;;;5023246;28;20645;-56
2024/01/27 11:11:00;;;;;;;7.57;3.23;;;;;;;;;;5019337;28;20396;-56
2024/01/27 11:13:28;;;;;;;5.23;2.80;;;;;;;;;;5023416;28;20592;-56
2024/01/27 11:15:54;;;;;;;8.37;3.70;;;;;;;;;;5021246;28;20257;-57
2024/01/27 11:18:20;;;;;;;7.67;3.63;;;;;;;;;;5021008;28;20248;-54
2024/01/27 11:20:46;;;;;;;8.37;2.87;;;;;;;;;;5025018;28;20549;-54
2024/01/27 11:23:16;;;;;;;8.17;4.13;;;;;;;;;;5018850;28;20186;-54
2024/01/27 11:25:42;;;;;;;5.23;3.17;;;;;;;;;;5014550;28;20277;-54
2024/01/27 11:28:15;;;;;;;6.43;3.60;;;;;;;;;;5016969;28;20273;-54
2024/01/27 11:30:49;;;;;;;6.23;3.27;;;;;;;;;;5019875;28;20589;-54
2024/01/27 11:33:15;;;;;;;4.60;3.13;;;;;;;;;;5018591;28;20298;-54
2024/01/27 11:35:41;;;;;;;6.90;3.30;;;;;;;;;;5023342;28;20209;-54
2024/01/27 11:38:07;;;;;;;7.73;3.63;;;;;;;;;;5019497;28;20731;-54
2024/01/27 11:40:34;;;;;;;7.20;3.30;;;;;;;;;;5022819;28;20170;-55
2024/01/27 11:43:01;;;;;;;7.53;3.90;;;;;;;;;;5027125;28;20241;-54
2024/01/27 11:45:28;;;;;;;8.80;3.50;;;;;;;;;;5028117;28;20192;-54
2024/01/27 11:47:55;;;;;;;8.60;3.53;;;;;;;;;;5024293;28;20626;-54
2024/01/27 11:50:21;;;;;;;5.97;3.23;;;;;;;;;;5022157;28;20205;-54
2024/01/27 11:52:48;;;;;;;6.60;3.30;;;;;;;;;;5026225;28;20711;-55
2024/01/27 11:55:15;;;;;;;9.17;3.73;;;;;;;;;;5028499;28;20281;-55
2024/01/27 11:57:41;;;;;;;5.03;2.90;;;;;;;;;;5026555;28;20178;-54
2024/01/27 12:00:09;;;;;;;10.10;3.50;;;;;;;;;;5029177;28;20186;-54
2024/01/27 12:02:35;;;;;;;5.87;4.13;;;;;;;;;;5026322;28;20185;-54
2024/01/27 12:05:01;;;;;;;11.37;3.97;;;;;;;;;;5024413;28;20178;-54
2024/01/27 12:07:27;;;;;;;9.40;3.70;;;;;;;;;;5029728;28;20631;-54
2024/01/27 12:09:53;;;;;;;6.63;3.53;;;;;;;;;;5025676;28;20624;-54
2024/01/27 12:12:20;;;;;;;6.63;3.77;;;;;;;;;;5026183;28;20256;-54
2024/01/27 12:14:47;;;;;;;8.50;3.87;;;;;;;;;;5027628;28;20185;-54
2024/01/27 12:17:13;;;;;;;6.17;3.23;;;;;;;;;;5024140;28;20181;-54
2024/01/27 12:19:40;;;;;;;6.73;3.73;;;;;;;;;;5014597;28;20233;-55
2024/01/27 12:22:20;;;;;;;6.23;3.33;;;;;;;;;;5020809;28;20281;-54
2024/01/27 12:24:46;;;;;;;5.93;3.27;;;;;;;;;;5021995;28;20259;-54
2024/01/27 12:27:12;;;;;;;7.10;3.53;;;;;;;;;;5023620;28;20202;-54
2024/01/27 12:29:41;;;;;;;8.23;3.87;;;;;;;;;;5022750;28;20191;-56
2024/01/27 12:32:07;;;;;;;8.13;3.40;;;;;;;;;;5026828;28;20209;-57
2024/01/27 12:34:33;;;;;;;5.63;3.27;;;;;;;;;;5018446;28;20186;-57
2024/01/27 12:36:59;;;;;;;6.40;3.40;;;;;;;;;;5023013;28;20649;-55
2024/01/27 12:39:26;;;;;;;6.43;3.57;;;;;;;;;;5024994;28;20179;-57
2024/01/27 12:41:53;;;;;;;7.33;2.83;;;;;;;;;;5025039;28;20206;-57
2024/01/27 12:44:19;;;;;;;9.07;3.20;;;;;;;;;;5025529;28;20759;-58
2024/01/27 12:46:45;;;;;;;8.10;3.53;;;;;;;;;;5022112;28;20665;-57
2024/01/27 12:49:11;;;;;;;9.00;3.30;;;;;;;;;;5020052;28;20281;-57
2024/01/27 12:51:37;;;;;;;8.70;3.30;;;;;;;;;;5022740;28;20579;-56
2024/01/27 12:54:03;;;;;;;7.53;3.00;;;;;;;;;;5019078;28;20248;-57
2024/01/27 12:56:29;;;;;;;7.57;3.70;;;;;;;;;;5022111;28;20541;-56
2024/01/27 12:58:55;;;;;;;10.87;3.50;;;;;;;;;;5028005;28;20178;-57
2024/01/27 13:01:22;;;;;;;5.43;3.20;;;;;;;;;;5028241;28;20232;-56
2024/01/27 13:03:50;;;;;;;5.87;3.37;;;;;;;;;;5028711;28;20243;-57
2024/01/27 13:06:16;;;;;;;7.93;3.40;;;;;;;;;;5028783;28;20189;-56
2024/01/27 13:08:44;;;;;;;9.27;3.67;;;;;;;;;;5024925;28;20586;-57
2024/01/27 13:11:12;;;;;;;8.97;3.13;;;;;;;;;;5027276;28;20223;-56
2024/01/27 13:13:38;;;;;;;8.03;3.40;;;;;;;;;;5026806;28;20205;-57
2024/01/27 13:16:05;;;;;;;5.93;3.43;;;;;;;;;;5026394;28;20178;-57
2024/01/27 13:18:30;;;;;;;7.17;3.70;;;;;;;;;;5021520;28;20182;-57
2024/01/27 13:20:57;;;;;;;10.73;3.53;;;;;;;;;;5002229;28;20425;-57
2024/01/27 13:23:23;;;;;;;9.83;3.50;;;;;;;;;;5027811;28;20467;-58
2024/01/27 13:25:49;;;;;;;6.00;2.80;;;;;;;;;;5029074;28;20480;-57
2024/01/27 13:28:15;;;;;;;5.63;2.77;;;;;;;;;;5028111;28;20185;-57
2024/01/27 13:30:41;;;;;;;3.93;2.77;;;;;;;;;;5030187;28;20186;-58
2024/01/27 13:33:08;;;;;;;6.17;2.70;;;;;;;;;;5025688;28;20212;-57
2024/01/27 13:35:34;;;;;;;5.27;2.97;;;;;;;;;;5028973;28;20882;-56
2024/01/27 13:38:00;;;;;;;5.30;2.90;;;;;;;;;;5028654;28;20549;-53
2024/01/27 13:40:26;;;;;;;4.97;3.00;;;;;;;;;;5025630;28;20294;-53
2024/01/27 13:42:53;;;;;;;7.53;3.30;;;;;;;;;;5018383;28;20207;-51
2024/01/27 13:45:19;;;;;;;6.77;2.67;;;;;;;;;;5023911;28;20756;-51
2024/01/27 13:47:45;;;;;;;5.57;2.90;;;;;;;;;;5025138;28;20245;-51
2024/01/27 13:50:12;;;;;;;9.10;3.10;;;;;;;;;;5026793;28;20184;-51
2024/01/27 13:52:38;;;;;;;7.27;3.43;;;;;;;;;;5027520;28;20233;-53
2024/01/27 13:55:04;;;;;;;6.53;2.70;;;;;;;;;;5027450;28;20240;-52
2024/01/27 13:57:30;;;;;;;7.13;2.50;;;;;;;;;;5025253;28;20173;-52
2024/01/27 13:59:56;;;;;;;4.80;2.80;;;;;;;;;;5026979;28;20182;-51
2024/01/27 14:02:23;;;;;;;6.70;2.87;;;;;;;;;;5024151;28;20256;-53
2024/01/27 14:04:49;;;;;;;6.13;2.83;;;;;;;;;;5027582;28;20190;-53
2024/01/27 14:07:15;;;;;;;6.20;2.90;;;;;;;;;;5028185;28;20189;-51
2024/01/27 14:09:41;;;;;;;5.53;2.70;;;;;;;;;;5026586;28;20533;-52
2024/01/27 14:12:07;;;;;;;6.87;2.67;;;;;;;;;;5025666;28;20574;-50
2024/01/27 14:14:36;;;;;;;4.57;2.63;;;;;;;;;;5027029;28;20181;-52
2024/01/27 14:17:02;;;;;;;4.83;2.67;;;;;;;;;;5026265;28;20212;-52
2024/01/27 14:19:28;;;;;;;6.27;3.03;;;;;;;;;;5025092;28;20198;-50
2024/01/27 14:21:54;;;;;;;7.70;2.63;;;;;;;;;;5021477;28;20668;-51
2024/01/27 14:24:20;;;;;;;6.23;3.30;;;;;;;;;;5025084;28;20213;-52
2024/01/27 14:26:46;;;;;;;5.80;2.50;;;;;;;;;;5026690;28;20174;-53
2024/01/27 14:29:12;;;;;;;3.87;2.50;;;;;;;;;;5030740;28;20203;-52
2024/01/27 14:31:38;;;;;;;7.07;2.53;;;;;;;;;;5027390;28;20178;-52
2024/01/27 14:34:04;;;;;;;6.77;2.90;;;;;;;;;;5019785;28;20185;-53
2024/01/27 14:36:30;;;;;;;5.40;2.90;;;;;;;;;;5027581;28;20239;-51
2024/01/27 14:38:56;;;;;;;8.83;2.73;;;;;;;;;;5024468;28;20635;-53